Weather at Rarotonga International Airport

Public forecast

Using degrees Celsius for public forecast. Weather courtesy of forecast.io.

Current aviation weather report (METAR) for Rarotonga International Airport

Report is more than 6 hours old.

Retrieved 2022/09/17 19:00 UTC (17 days ago):

NCRG 171900Z AUTO 08011KT 9999 NCD 25/21 Q1021

Aviation forecast (TAF) for Rarotonga International Airport

Forecast is more than 12 hours old.

Retrieved 2022/09/17 18:00 UTC (17 days ago):

TAF NCRG 171703Z 1718/1818 09006KT 9999 FEW020 SCT048